Time;durP1;ratioP1;P1;durP2;ratioP2;P2;SDS_P1;SDS_P2;PMS_P1;PMS_P2;Temp;Humidity;BMP_temperature;BMP_pressure;BME280_temperature;BME280_humidity;BME280_pressure;Samples;Min_cycle;Max_cycle;Signal;HPM_P1;HPM_P2
2023/07/25 00:00:08;;;;;;;0.00;0.00;;;;;;;13.16;nan;99742.28;4902952;29;20031;-77
2023/07/25 00:02:34;;;;;;;0.00;0.00;;;;;;;;;;4929556;29;20114;-77
2023/07/25 00:04:59;;;;;;;0.00;0.00;;;;;;;13.14;nan;99727.22;4935173;29;20122;-76
2023/07/25 00:07:24;;;;;;;0.00;0.00;;;;;;;;;;4913125;29;21404;-78
2023/07/25 00:09:50;;;;;;;0.00;0.00;;;;;;;13.22;nan;99740.28;4918191;29;20028;-78
2023/07/25 00:12:15;;;;;;;0.00;0.00;;;;;;;;;;4918300;29;20039;-77
2023/07/25 00:14:41;;;;;;;0.00;0.00;;;;;;;;;;4936108;29;20031;-77
2023/07/25 00:17:06;;;;;;;0.00;0.00;;;;;;;13.34;nan;99726.06;4918827;29;20130;-77
2023/07/25 00:19:31;;;;;;;0.00;0.00;;;;;;;;;;4912186;29;20341;-78
2023/07/25 00:21:57;;;;;;;0.00;0.00;;;;;;;13.31;nan;99732.97;4914849;29;20164;-77
2023/07/25 00:24:22;;;;;;;0.00;0.00;;;;;;;;;;4932462;29;20774;-76
2023/07/25 00:26:47;;;;;;;0.00;0.00;;;;;;;13.18;nan;99731.00;4919680;29;20034;-76
2023/07/25 00:29:13;;;;;;;0.00;0.00;;;;;;;13.20;nan;99726.00;4919848;29;20027;-76
2023/07/25 00:31:38;;;;;;;0.00;0.00;;;;;;;13.12;nan;99740.44;4913484;29;20050;-77
2023/07/25 00:34:06;;;;;;;0.00;0.00;;;;;;;13.01;nan;99721.41;4932243;29;20792;-76
2023/07/25 00:36:31;;;;;;;0.00;0.00;;;;;;;13.03;nan;99721.09;4916813;28;20478;-76
2023/07/25 00:38:57;;;;;;;0.00;0.00;;;;;;;;;;4940902;29;20037;-75
2023/07/25 00:41:22;;;;;;;0.00;0.00;;;;;;;13.03;nan;99735.63;4941496;29;20030;-75
2023/07/25 00:43:47;;;;;;;0.00;0.00;;;;;;;12.97;nan;99728.59;4917660;29;20031;-74
2023/07/25 00:46:14;;;;;;;0.00;0.00;;;;;;;12.95;nan;99735.50;4954457;28;20027;-75
2023/07/25 00:48:39;;;;;;;0.00;0.00;;;;;;;12.90;nan;99673.28;4921856;29;20031;-75
2023/07/25 00:51:06;;;;;;;0.00;0.00;;;;;;;12.83;nan;99727.72;4904879;29;20034;-75
2023/07/25 00:53:32;;;;;;;0.00;0.00;;;;;;;12.77;nan;99707.78;4946888;29;20023;-74
2023/07/25 00:55:57;;;;;;;0.00;0.00;;;;;;;12.74;nan;99717.41;4916837;29;20043;-75
2023/07/25 00:58:23;;;;;;;0.00;0.00;;;;;;;;;;4908250;29;20056;-76
2023/07/25 01:00:49;;;;;;;0.00;0.00;;;;;;;12.65;nan;99727.44;4893212;29;20036;-77
2023/07/25 01:03:15;;;;;;;0.00;0.00;;;;;;;12.59;nan;99723.13;4912429;29;20039;-77
2023/07/25 01:05:44;;;;;;;0.00;0.00;;;;;;;12.57;nan;99725.34;4906177;29;20467;-77
2023/07/25 01:08:09;;;;;;;0.10;0.10;;;;;;;12.53;nan;99718.84;4911803;29;20773;-77
2023/07/25 01:10:38;;;;;;;0.00;0.00;;;;;;;;;;4891014;29;20039;-77
2023/07/25 01:13:04;;;;;;;0.00;0.00;;;;;;;12.56;nan;99734.72;4912491;29;20059;-77
2023/07/25 01:15:31;;;;;;;0.00;0.00;;;;;;;12.54;nan;99726.78;4907265;29;20028;-77
2023/07/25 01:17:56;;;;;;;0.00;0.00;;;;;;;;;;4905325;29;20036;-76
2023/07/25 01:20:22;;;;;;;0.00;0.00;;;;;;;12.49;nan;99728.78;4908819;29;20390;-76
2023/07/25 01:22:49;;;;;;;0.00;0.00;;;;;;;12.44;nan;99721.44;4916714;23;20546;-75
2023/07/25 01:25:14;;;;;;;0.00;0.00;;;;;;;12.45;nan;99722.25;4963597;28;20442;-75
2023/07/25 01:27:40;;;;;;;0.00;0.00;;;;;;;;;;4952887;28;20069;-75
2023/07/25 01:30:06;;;;;;;0.00;0.00;;;;;;;12.44;nan;99723.34;4937359;28;20037;-74
2023/07/25 01:32:32;;;;;;;0.00;0.00;;;;;;;12.39;nan;99714.06;4918888;28;22087;-76
2023/07/25 01:34:57;;;;;;;0.00;0.00;;;;;;;12.38;nan;99700.66;4936111;28;20032;-74
2023/07/25 01:37:23;;;;;;;0.00;0.00;;;;;;;12.46;nan;99708.22;4944026;28;20031;-74
2023/07/25 01:39:48;;;;;;;0.00;0.00;;;;;;;12.49;nan;99699.41;4944099;28;20497;-74
2023/07/25 01:42:14;;;;;;;0.00;0.00;;;;;;;;;;4934349;28;20150;-74
2023/07/25 01:44:39;;;;;;;0.00;0.00;;;;;;;12.50;nan;99713.94;4944272;28;20034;-75
2023/07/25 01:47:05;;;;;;;0.00;0.00;;;;;;;12.40;nan;99725.88;4912896;28;20031;-75
2023/07/25 01:49:30;;;;;;;0.00;0.00;;;;;;;12.27;nan;99704.69;4923196;29;20035;-75
2023/07/25 01:51:56;;;;;;;0.00;0.00;;;;;;;12.34;nan;99722.38;4931530;28;20556;-74
2023/07/25 01:54:21;;;;;;;0.00;0.00;;;;;;;12.32;nan;99735.56;4936695;28;20034;-74
2023/07/25 01:56:46;;;;;;;0.00;0.00;;;;;;;12.31;nan;99722.16;4931824;28;20037;-74
2023/07/25 01:59:12;;;;;;;0.00;0.00;;;;;;;12.30;nan;99732.31;4945682;28;20033;-74
2023/07/25 02:01:37;;;;;;;0.00;0.00;;;;;;;12.26;nan;99712.06;4938561;29;20042;-74
2023/07/25 02:04:03;;;;;;;0.00;0.00;;;;;;;12.28;nan;99711.78;4927350;28;20067;-75
2023/07/25 02:06:28;;;;;;;0.00;0.00;;;;;;;12.30;nan;99723.28;4951838;28;20030;-73
2023/07/25 02:08:54;;;;;;;0.00;0.00;;;;;;;12.35;nan;99713.06;4933583;28;20034;-73
2023/07/25 02:11:19;;;;;;;0.00;0.00;;;;;;;12.39;nan;99730.53;4933899;29;20035;-74
2023/07/25 02:13:45;;;;;;;0.00;0.00;;;;;;;11.19;nan;99506.91;4925220;28;20121;-74
2023/07/25 02:16:10;;;;;;;0.00;0.00;;;;;;;12.51;nan;99721.88;4922536;29;20513;-75
2023/07/25 02:18:35;;;;;;;0.00;0.00;;;;;;;;;;4937247;28;20106;-74
2023/07/25 02:21:01;;;;;;;0.00;0.00;;;;;;;12.62;nan;99739.00;4937078;28;20034;-74
2023/07/25 02:23:26;;;;;;;0.00;0.00;;;;;;;;;;4970178;28;20603;-73
2023/07/25 02:25:51;;;;;;;0.00;0.00;;;;;;;12.68;nan;99726.84;4969415;28;20384;-74
2023/07/25 02:28:17;;;;;;;0.00;0.00;;;;;;;12.72;nan;99733.38;4952071;28;20504;-75
2023/07/25 02:30:42;;;;;;;0.00;0.00;;;;;;;;;;4966499;28;20088;-74
2023/07/25 02:33:07;;;;;;;0.00;0.00;;;;;;;12.75;nan;99731.97;4952161;28;20031;-74
2023/07/25 02:35:33;;;;;;;0.00;0.00;;;;;;;;;;4982515;28;20022;-74
2023/07/25 02:37:58;;;;;;;0.00;0.00;;;;;;;;;;4970661;28;20108;-75
2023/07/25 02:40:23;;;;;;;0.00;0.00;;;;;;;;;;4970209;28;20026;-74
2023/07/25 02:42:49;;;;;;;0.00;0.00;;;;;;;12.73;nan;99724.03;4974552;28;20018;-74
2023/07/25 02:45:14;;;;;;;0.00;0.00;;;;;;;12.65;nan;99721.13;4963169;28;20038;-75
2023/07/25 02:47:40;;;;;;;0.00;0.00;;;;;;;12.69;nan;99723.00;4973051;28;20030;-75
2023/07/25 02:50:06;;;;;;;0.00;0.00;;;;;;;12.67;nan;99714.22;4949650;28;20034;-76
2023/07/25 02:52:31;;;;;;;0.00;0.00;;;;;;;12.74;nan;99725.63;4952316;28;20038;-75
2023/07/25 02:54:57;;;;;;;0.00;0.00;;;;;;;12.73;nan;99724.03;4987879;28;20026;-76
2023/07/25 02:57:22;;;;;;;0.00;0.00;;;;;;;12.65;nan;99694.50;4935875;28;20093;-74
2023/07/25 02:59:48;;;;;;;0.00;0.00;;;;;;;12.63;nan;99718.69;4976223;28;20031;-74
2023/07/25 03:02:13;;;;;;;0.00;0.00;;;;;;;12.65;nan;99727.44;4947983;28;20038;-75
2023/07/25 03:04:38;;;;;;;0.00;0.00;;;;;;;12.60;nan;99734.91;4957415;28;20392;-75
2023/07/25 03:07:04;;;;;;;0.00;0.00;;;;;;;12.51;nan;99727.38;4972440;28;20085;-75
2023/07/25 03:09:30;;;;;;;0.00;0.00;;;;;;;12.48;nan;99735.34;4950983;28;20034;-75
2023/07/25 03:11:56;;;;;;;0.00;0.00;;;;;;;12.41;nan;99743.94;4984300;28;20045;-76
2023/07/25 03:14:21;;;;;;;0.00;0.00;;;;;;;12.33;nan;99736.38;4986391;28;20026;-75
2023/07/25 03:16:46;;;;;;;0.00;0.00;;;;;;;12.28;nan;99750.97;4969647;28;20050;-75
2023/07/25 03:19:12;;;;;;;0.00;0.00;;;;;;;11.23;nan;99575.53;4981496;28;20412;-75
2023/07/25 03:21:37;;;;;;;0.00;0.00;;;;;;;12.18;nan;99775.78;4947507;28;20034;-74
2023/07/25 03:24:03;;;;;;;0.00;0.00;;;;;;;12.13;nan;99751.16;4965577;28;20030;-73
2023/07/25 03:26:28;;;;;;;0.00;0.00;;;;;;;;;;4933673;28;20514;-74
2023/07/25 03:28:53;;;;;;;0.00;0.00;;;;;;;12.05;nan;99731.50;4933187;28;20125;-74
2023/07/25 03:31:19;;;;;;;0.00;0.00;;;;;;;12.03;nan;99763.88;4936821;28;20031;-74
2023/07/25 03:33:44;;;;;;;0.00;0.00;;;;;;;11.99;nan;99760.09;4960721;28;20118;-74
2023/07/25 03:36:10;;;;;;;0.00;0.00;;;;;;;11.93;nan;99768.63;4919058;28;20125;-74
2023/07/25 03:38:35;;;;;;;0.00;0.00;;;;;;;11.72;nan;99710.50;4935424;28;20026;-74
2023/07/25 03:41:01;;;;;;;0.00;0.00;;;;;;;11.83;nan;99755.88;4945991;28;20038;-73
2023/07/25 03:43:26;;;;;;;0.00;0.00;;;;;;;11.76;nan;99749.91;4917656;29;20035;-73
2023/07/25 03:45:51;;;;;;;0.00;0.00;;;;;;;11.81;nan;99771.75;4937156;28;20101;-75
2023/07/25 03:48:17;;;;;;;0.00;0.00;;;;;;;11.81;nan;99758.06;4928775;28;20023;-74
2023/07/25 03:50:42;;;;;;;0.00;0.00;;;;;;;;;;4928793;28;20082;-74
2023/07/25 03:53:08;;;;;;;0.00;0.00;;;;;;;11.80;nan;99768.22;4942896;28;20030;-74
2023/07/25 03:55:33;;;;;;;0.00;0.00;;;;;;;11.82;nan;99771.47;4946149;28;20591;-74
2023/07/25 03:57:58;;;;;;;0.00;0.00;;;;;;;11.85;nan;99764.59;4931472;28;20488;-72
2023/07/25 04:00:24;;;;;;;0.00;0.00;;;;;;;11.81;nan;99769.88;4933950;28;20037;-73
2023/07/25 04:02:49;;;;;;;0.00;0.00;;;;;;;;;;4936597;28;20117;-74
2023/07/25 04:05:15;;;;;;;0.00;0.00;;;;;;;;;;4937295;28;21509;-75
2023/07/25 04:07:40;;;;;;;0.00;0.00;;;;;;;11.79;nan;99749.34;4960853;28;20030;-74
2023/07/25 04:10:06;;;;;;;0.00;0.00;;;;;;;11.80;nan;99762.75;4957831;28;20514;-73
2023/07/25 04:12:32;;;;;;;0.00;0.00;;;;;;;11.78;nan;99755.91;4941446;28;20496;-74
2023/07/25 04:14:57;;;;;;;0.00;0.00;;;;;;;;;;4941276;28;20067;-73
2023/07/25 04:17:23;;;;;;;0.00;0.00;;;;;;;11.63;nan;99749.47;4967545;28;20113;-75
2023/07/25 04:19:48;;;;;;;0.00;0.00;;;;;;;11.49;nan;99756.75;4942623;28;20051;-74
2023/07/25 04:22:14;;;;;;;0.00;0.00;;;;;;;11.36;nan;99744.56;4957556;28;20397;-75
2023/07/25 04:24:39;;;;;;;0.00;0.00;;;;;;;11.29;nan;99752.28;4929357;28;20130;-75
2023/07/25 04:27:05;;;;;;;0.00;0.00;;;;;;;11.21;nan;99772.84;4949983;28;20037;-74
2023/07/25 04:29:30;;;;;;;0.00;0.00;;;;;;;11.15;nan;99738.44;4948855;29;20489;-73
2023/07/25 04:31:56;;;;;;;0.00;0.00;;;;;;;9.78;nan;99541.22;4942298;28;20076;-74
2023/07/25 04:34:21;;;;;;;0.00;0.00;;;;;;;11.00;nan;99759.34;4928381;28;20030;-74
2023/07/25 04:36:47;;;;;;;0.00;0.00;;;;;;;10.92;nan;99749.03;4916126;29;20359;-75
2023/07/25 04:39:15;;;;;;;0.00;0.00;;;;;;;10.86;nan;99766.56;4949993;28;20035;-74
2023/07/25 04:41:41;;;;;;;0.00;0.00;;;;;;;;;;4948984;28;20031;-74
2023/07/25 04:44:06;;;;;;;0.00;0.00;;;;;;;10.79;nan;99750.47;4940121;28;20689;-75
2023/07/25 04:46:32;;;;;;;0.00;0.00;;;;;;;10.77;nan;99738.19;4937389;28;20109;-74
2023/07/25 04:48:57;;;;;;;0.00;0.00;;;;;;;10.77;nan;99773.72;4927404;28;20470;-73
2023/07/25 04:51:23;;;;;;;0.00;0.00;;;;;;;10.79;nan;99782.47;4936506;28;20065;-75
2023/07/25 04:53:48;;;;;;;0.00;0.00;;;;;;;10.77;nan;99762.78;4953374;28;20145;-76
2023/07/25 04:56:14;;;;;;;0.00;0.00;;;;;;;10.78;nan;99781.66;4942335;28;20039;-75
2023/07/25 04:58:40;;;;;;;0.00;0.00;;;;;;;10.22;nan;99675.34;4945413;28;20035;-74
2023/07/25 05:01:10;;;;;;;0.00;0.00;;;;;;;10.78;nan;99786.31;4933708;28;21579;-74
2023/07/25 05:03:35;;;;;;;0.00;0.00;;;;;;;;;;4936184;28;20059;-75
2023/07/25 05:06:01;;;;;;;0.00;0.00;;;;;;;9.56;nan;99560.72;4941277;28;20054;-76
2023/07/25 05:08:26;;;;;;;0.00;0.00;;;;;;;;;;4925410;28;20022;-75
2023/07/25 05:10:52;;;;;;;0.00;0.00;;;;;;;10.86;nan;99777.50;4953291;28;20234;-74
2023/07/25 05:13:18;;;;;;;0.00;0.00;;;;;;;;;;4962724;28;20035;-75
2023/07/25 05:15:43;;;;;;;0.00;0.00;;;;;;;;;;4950879;28;20042;-75
2023/07/25 05:18:09;;;;;;;0.00;0.00;;;;;;;;;;4940147;29;20110;-74
2023/07/25 05:20:34;;;;;;;0.00;0.00;;;;;;;11.00;nan;99811.31;4942680;28;20043;-76
2023/07/25 05:22:59;;;;;;;0.00;0.00;;;;;;;;;;4921647;28;20050;-74
2023/07/25 05:25:25;;;;;;;0.00;0.00;;;;;;;11.05;nan;99801.44;4921562;28;20038;-73
2023/07/25 05:27:50;;;;;;;0.00;0.00;;;;;;;11.10;nan;99826.06;4933797;28;20477;-73
2023/07/25 05:30:16;;;;;;;0.00;0.00;;;;;;;11.17;nan;99815.59;4938807;29;20034;-73
2023/07/25 05:32:41;;;;;;;0.00;0.00;;;;;;;;;;4927659;28;20696;-74
2023/07/25 05:35:07;;;;;;;0.00;0.00;;;;;;;11.28;nan;99808.94;4925872;28;20339;-73
2023/07/25 05:37:36;;;;;;;0.00;0.00;;;;;;;;;;4937405;28;20083;-74
2023/07/25 05:40:02;;;;;;;0.00;0.00;;;;;;;11.38;nan;99807.22;4949043;28;21512;-74
2023/07/25 05:42:27;;;;;;;0.00;0.00;;;;;;;11.42;nan;99800.06;4938624;28;20046;-74
2023/07/25 05:44:53;;;;;;;0.00;0.00;;;;;;;11.46;nan;99810.16;4927169;28;20043;-73
2023/07/25 05:47:18;;;;;;;0.00;0.00;;;;;;;;;;4962867;28;20097;-73
2023/07/25 05:49:43;;;;;;;0.00;0.00;;;;;;;11.52;nan;99827.34;4919183;28;20459;-73
2023/07/25 05:52:09;;;;;;;0.00;0.00;;;;;;;11.55;nan;99810.38;4937251;29;20090;-74
2023/07/25 05:54:34;;;;;;;0.00;0.00;;;;;;;;;;4939730;28;20082;-75
2023/07/25 05:57:01;;;;;;;0.00;0.00;;;;;;;11.62;nan;99805.38;4932754;28;20667;-73
2023/07/25 05:59:26;;;;;;;0.00;0.00;;;;;;;11.11;nan;99729.16;4935162;28;20696;-74
2023/07/25 06:01:52;;;;;;;0.00;0.00;;;;;;;11.79;nan;99826.84;4932720;28;20039;-75
2023/07/25 06:04:17;;;;;;;0.00;0.00;;;;;;;11.82;nan;99825.44;4941813;28;20129;-74
2023/07/25 06:06:43;;;;;;;0.00;0.00;;;;;;;11.88;nan;99836.09;4920876;28;20119;-73
2023/07/25 06:09:08;;;;;;;0.00;0.00;;;;;;;;;;4929383;28;20105;-73
2023/07/25 06:11:34;;;;;;;0.00;0.00;;;;;;;12.03;nan;99835.13;4928142;28;20439;-74
2023/07/25 06:14:00;;;;;;;0.10;0.10;;;;;;;12.11;nan;99838.34;4952238;28;20265;-73
2023/07/25 06:16:25;;;;;;;0.00;0.00;;;;;;;12.16;nan;99825.41;4944378;28;20394;-74
2023/07/25 06:18:51;;;;;;;0.00;0.00;;;;;;;12.28;nan;99844.19;4921135;28;20039;-74
2023/07/25 06:21:16;;;;;;;0.00;0.00;;;;;;;12.42;nan;99832.50;4946804;29;20501;-75
2023/07/25 06:23:42;;;;;;;0.00;0.00;;;;;;;12.51;nan;99848.03;4923986;28;20048;-73
2023/07/25 06:26:07;;;;;;;0.00;0.00;;;;;;;12.65;nan;99863.78;4937329;28;20457;-74
2023/07/25 06:28:32;;;;;;;0.00;0.00;;;;;;;12.82;nan;99860.53;4940464;28;20090;-74
2023/07/25 06:30:58;;;;;;;0.00;0.00;;;;;;;13.13;nan;99840.88;4928248;28;20090;-74
2023/07/25 06:33:24;;;;;;;0.00;0.00;;;;;;;13.38;nan;99857.00;4950312;28;20050;-74
2023/07/25 06:35:49;;;;;;;0.00;0.00;;;;;;;13.67;nan;99860.66;4939683;28;20031;-73
2023/07/25 06:38:14;;;;;;;0.00;0.00;;;;;;;13.92;nan;99873.97;4948175;28;20089;-74
2023/07/25 06:40:40;;;;;;;0.00;0.00;;;;;;;;;;4940601;28;20474;-74
2023/07/25 06:43:05;;;;;;;0.00;0.00;;;;;;;;;;4940861;28;20039;-75
2023/07/25 06:45:30;;;;;;;0.00;0.00;;;;;;;14.35;nan;99874.84;4934145;28;20077;-71
2023/07/25 06:47:56;;;;;;;0.00;0.00;;;;;;;13.67;nan;99729.63;4942430;28;20446;-71
2023/07/25 06:50:21;;;;;;;0.00;0.00;;;;;;;14.52;nan;99868.75;4932483;28;20039;-70
2023/07/25 06:52:47;;;;;;;0.00;0.00;;;;;;;14.55;nan;99862.63;4940852;28;20142;-72
2023/07/25 06:55:12;;;;;;;0.00;0.00;;;;;;;;;;4925197;28;20039;-71
2023/07/25 06:57:38;;;;;;;0.00;0.00;;;;;;;14.68;nan;99878.34;4922855;28;20768;-73
2023/07/25 07:00:04;;;;;;;0.00;0.00;;;;;;;14.71;nan;99874.97;4930831;29;20043;-72
2023/07/25 07:02:29;;;;;;;0.00;0.00;;;;;;;14.76;nan;99852.88;4933850;28;20083;-73
2023/07/25 07:04:56;;;;;;;0.00;0.00;;;;;;;14.83;nan;99858.78;4925225;28;20496;-71
2023/07/25 07:07:21;;;;;;;0.00;0.00;;;;;;;14.88;nan;99860.59;4933728;28;20466;-71
2023/07/25 07:09:47;;;;;;;0.00;0.00;;;;;;;14.99;nan;99866.69;4913816;28;20124;-72
2023/07/25 07:12:14;;;;;;;0.00;0.00;;;;;;;15.06;nan;99872.56;4960558;28;20058;-71
2023/07/25 07:14:40;;;;;;;0.00;0.00;;;;;;;15.11;nan;99868.88;4963876;28;20066;-71
2023/07/25 07:17:05;;;;;;;0.00;0.00;;;;;;;15.20;nan;99867.03;4897137;28;20046;-71
2023/07/25 07:19:31;;;;;;;0.00;0.00;;;;;;;15.28;nan;99882.81;4920844;29;20027;-71
2023/07/25 07:21:56;;;;;;;0.00;0.00;;;;;;;;;;4925563;28;20042;-72
2023/07/25 07:24:21;;;;;;;0.00;0.00;;;;;;;15.45;nan;99879.41;4914080;29;20085;-72
2023/07/25 07:26:47;;;;;;;0.00;0.00;;;;;;;15.53;nan;99878.63;4935974;29;20043;-70
2023/07/25 07:29:12;;;;;;;0.00;0.00;;;;;;;;;;4926788;28;20118;-72
2023/07/25 07:31:38;;;;;;;0.00;0.00;;;;;;;15.83;nan;99892.84;4947618;28;20106;-71
2023/07/25 07:34:13;;;;;;;0.00;0.00;;;;;;;16.04;nan;99831.63;4912953;28;20035;-71
2023/07/25 07:36:38;;;;;;;0.00;0.00;;;;;;;14.00;nan;99487.63;4930219;28;20426;-71
2023/07/25 07:39:04;;;;;;;0.00;0.00;;;;;;;17.08;nan;99894.69;4939229;28;20123;-71
2023/07/25 07:41:29;;;;;;;0.00;0.00;;;;;;;17.44;nan;99917.63;4903540;28;20027;-71
2023/07/25 07:43:55;;;;;;;0.00;0.00;;;;;;;17.99;nan;99854.47;4927551;28;20031;-71
2023/07/25 07:46:20;;;;;;;0.00;0.00;;;;;;;18.64;nan;99891.97;4924924;28;20026;-72
2023/07/25 07:48:48;;;;;;;0.00;0.00;;;;;;;19.31;nan;99908.88;4917165;28;20414;-71
2023/07/25 07:51:16;;;;;;;0.00;0.00;;;;;;;19.79;nan;99900.34;4940722;28;20526;-72
2023/07/25 07:53:41;;;;;;;0.00;0.00;;;;;;;;;;4959822;28;20026;-73
2023/07/25 07:56:10;;;;;;;0.00;0.00;;;;;;;20.46;nan;99905.81;4945709;28;20034;-72
2023/07/25 07:58:38;;;;;;;0.00;0.00;;;;;;;20.58;nan;99908.63;4946087;28;20561;-72
2023/07/25 08:01:11;;;;;;;0.00;0.00;;;;;;;;;;4933508;28;20084;-72
2023/07/25 08:03:36;;;;;;;0.00;0.00;;;;;;;21.03;nan;99913.28;4922752;29;20127;-72
2023/07/25 08:06:01;;;;;;;0.00;0.00;;;;;;;;;;4944485;28;20022;-72
2023/07/25 08:08:27;;;;;;;0.00;0.00;;;;;;;21.88;nan;99912.59;4930236;29;20047;-71
2023/07/25 08:10:52;;;;;;;0.00;0.00;;;;;;;;;;4950665;28;20039;-72
2023/07/25 08:13:17;;;;;;;0.00;0.00;;;;;;;22.25;nan;99915.16;4926452;28;20755;-70
2023/07/25 08:15:43;;;;;;;0.00;0.00;;;;;;;22.02;nan;99929.69;4916088;29;20295;-75
2023/07/25 08:18:08;;;;;;;0.00;0.00;;;;;;;21.56;nan;99918.84;4924914;29;20066;-72
2023/07/25 08:20:34;;;;;;;0.00;0.00;;;;;;;21.08;nan;99926.13;4926927;28;20457;-72
2023/07/25 08:22:59;;;;;;;0.00;0.00;;;;;;;20.91;nan;99916.88;4960097;28;20051;-72
2023/07/25 08:25:24;;;;;;;0.00;0.00;;;;;;;21.04;nan;99912.13;4946426;28;20034;-72
2023/07/25 08:27:50;;;;;;;0.00;0.00;;;;;;;21.17;nan;99925.97;4945814;29;20031;-73
2023/07/25 08:30:15;;;;;;;0.00;0.00;;;;;;;21.18;nan;99919.28;4963008;28;20030;-72
2023/07/25 08:32:40;;;;;;;0.00;0.00;;;;;;;;;;4941646;28;20042;-72
2023/07/25 08:35:06;;;;;;;0.00;0.00;;;;;;;20.77;nan;99835.03;4935947;29;20032;-71
2023/07/25 08:37:32;;;;;;;0.00;0.00;;;;;;;21.21;nan;99930.50;4932525;28;20775;-72
2023/07/25 08:39:57;;;;;;;0.00;0.00;;;;;;;21.04;nan;99931.56;4943080;28;20069;-71
2023/07/25 08:42:24;;;;;;;0.00;0.00;;;;;;;;;;4965057;28;20031;-71
2023/07/25 08:44:51;;;;;;;0.00;0.00;;;;;;;20.79;nan;99918.84;4959041;28;20392;-71
2023/07/25 08:47:20;;;;;;;0.00;0.00;;;;;;;20.81;nan;99927.63;4947008;28;20029;-72
2023/07/25 08:49:47;;;;;;;0.00;0.00;;;;;;;20.37;nan;99942.84;4941739;28;20035;-70
2023/07/25 08:52:16;;;;;;;0.00;0.00;;;;;;;;;;4943038;29;20405;-73
2023/07/25 08:54:46;;;;;;;0.00;0.00;;;;;;;19.65;nan;99928.34;4947983;28;20541;-71
2023/07/25 08:57:13;;;;;;;0.00;0.00;;;;;;;20.20;nan;99940.25;4967906;28;20054;-71
2023/07/25 08:59:39;;;;;;;0.00;0.00;;;;;;;20.32;nan;99951.38;4937270;28;20023;-71
2023/07/25 09:02:05;;;;;;;0.00;0.00;;;;;;;;;;4944918;28;20030;-71
2023/07/25 09:04:31;;;;;;;0.00;0.00;;;;;;;20.28;nan;99944.91;4942654;28;20114;-72
2023/07/25 09:06:59;;;;;;;0.00;0.00;;;;;;;20.45;nan;99891.13;4960810;28;20023;-71
2023/07/25 09:09:24;;;;;;;0.00;0.00;;;;;;;20.71;nan;99945.59;4938634;28;20390;-71
2023/07/25 09:11:50;;;;;;;0.00;0.00;;;;;;;20.99;nan;99931.78;4934502;28;20042;-70
2023/07/25 09:14:16;;;;;;;0.00;0.00;;;;;;;21.38;nan;99945.31;4916672;29;20113;-71
2023/07/25 09:16:41;;;;;;;0.00;0.00;;;;;;;21.52;nan;99945.75;4962911;28;20027;-71
2023/07/25 09:19:07;;;;;;;0.00;0.00;;;;;;;19.47;nan;99739.94;4937171;28;20093;-70
2023/07/25 09:21:44;;;;;;;0.00;0.00;;;;;;;21.38;nan;99956.44;4930745;28;20641;-71
2023/07/25 09:24:10;;;;;;;0.00;0.00;;;;;;;21.12;nan;99938.16;4953130;28;20539;-71
2023/07/25 09:26:38;;;;;;;0.00;0.00;;;;;;;;;;4950389;28;20022;-70
2023/07/25 09:29:03;;;;;;;0.00;0.00;;;;;;;20.89;nan;99946.16;4940248;28;20031;-70
2023/07/25 09:31:29;;;;;;;0.00;0.00;;;;;;;;;;4949984;28;20058;-70
2023/07/25 09:33:55;;;;;;;0.00;0.00;;;;;;;;;;4931410;28;20035;-71
2023/07/25 09:36:22;;;;;;;0.00;0.00;;;;;;;20.82;nan;99957.88;4958959;28;20054;-70
2023/07/25 09:38:55;;;;;;;0.00;0.00;;;;;;;20.66;nan;99954.97;4950588;28;20196;-71
2023/07/25 09:41:23;;;;;;;0.00;0.00;;;;;;;20.78;nan;99956.94;4961190;28;20117;-70
2023/07/25 09:43:50;;;;;;;0.00;0.00;;;;;;;20.88;nan;99902.84;4966756;28;20071;-72
2023/07/25 09:46:15;;;;;;;0.00;0.00;;;;;;;21.25;nan;99944.50;4935515;28;20473;-70
2023/07/25 09:48:46;;;;;;;0.00;0.00;;;;;;;21.23;nan;99941.25;4964944;28;20038;-71
2023/07/25 09:51:12;;;;;;;0.00;0.00;;;;;;;21.66;nan;99945.38;4950037;28;20513;-71
2023/07/25 09:53:41;;;;;;;0.00;0.00;;;;;;;21.81;nan;99945.78;4913488;29;20031;-70
2023/07/25 09:56:07;;;;;;;0.00;0.00;;;;;;;22.55;nan;99960.16;4954277;28;20031;-70
2023/07/25 09:58:33;;;;;;;0.00;0.00;;;;;;;25.55;nan;99969.69;4941255;28;20094;-71
2023/07/25 10:00:59;;;;;;;0.00;0.00;;;;;;;29.23;nan;99973.66;4930687;28;20039;-74
2023/07/25 10:03:26;;;;;;;0.00;0.00;;;;;;;32.49;nan;99973.44;4950194;28;20055;-74
2023/07/25 10:05:52;;;;;;;0.00;0.00;;;;;;;31.49;nan;99930.31;4949465;28;20042;-73
2023/07/25 10:08:18;;;;;;;0.00;0.00;;;;;;;;;;4925626;29;20047;-72
2023/07/25 10:10:43;;;;;;;0.00;0.00;;;;;;;34.33;nan;99957.88;4942005;28;20023;-71
2023/07/25 10:13:09;;;;;;;0.00;0.00;;;;;;;36.52;nan;99979.50;4931067;28;20046;-71
2023/07/25 10:15:35;;;;;;;0.00;0.00;;;;;;;;;;4961077;28;20125;-71
2023/07/25 10:18:16;;;;;;;0.00;0.00;;;;;;;33.19;nan;99962.56;4940422;28;20130;-72
2023/07/25 10:20:42;;;;;;;0.00;0.00;;;;;;;35.51;nan;99951.22;4948351;28;20038;-69
2023/07/25 10:23:11;;;;;;;0.00;0.00;;;;;;;;;;4947797;28;20105;-71
2023/07/25 10:25:37;;;;;;;0.00;0.00;;;;;;;38.61;nan;99977.66;4945716;28;20051;-71
2023/07/25 10:28:19;;;;;;;0.00;0.00;;;;;;;38.14;nan;99973.00;4956205;28;20030;-70
2023/07/25 10:30:46;;;;;;;0.00;0.00;;;;;;;36.16;nan;99963.53;4925767;28;20031;-74
2023/07/25 10:33:22;;;;;;;0.00;0.00;;;;;;;33.80;nan;99933.06;4961699;28;20030;-74
2023/07/25 10:36:03;;;;;;;0.00;0.00;;;;;;;;;;4928544;28;20058;-75
2023/07/25 10:38:53;;;;;;;0.00;0.00;;;;;;;34.88;nan;99944.75;4958979;28;20038;-74
2023/07/25 10:41:24;;;;;;;0.00;0.00;;;;;;;37.63;nan;99952.09;4921925;29;20411;-74
2023/07/25 10:43:52;;;;;;;0.00;0.00;;;;;;;40.71;nan;99957.56;4953011;28;20046;-74
2023/07/25 10:46:44;;;;;;;0.00;0.00;;;;;;;37.59;nan;99942.88;4929905;28;20031;-74
2023/07/25 10:49:53;;;;;;;0.00;0.00;;;;;;;33.97;nan;99945.28;4934397;28;20114;-74
2023/07/25 10:55:53;;;;;;;0.00;0.00;;;;;;;29.38;nan;99906.84;4944701;28;20035;-75
2023/07/25 10:58:41;;;;;;;0.00;0.00;;;;;;;29.04;nan;99915.78;4879242;28;20125;-73
2023/07/25 11:01:51;;;;;;;0.00;0.00;;;;;;;30.69;nan;99930.28;4865637;29;20056;-75
2023/07/25 11:05:16;;;;;;;0.00;0.00;;;;;;;35.10;nan;99936.47;4866586;29;20088;-75
2023/07/25 11:08:39;;;;;;;0.00;0.00;;;;;;;39.91;nan;99960.56;4850844;29;20048;-74
2023/07/25 11:11:36;;;;;;;;;;;;;;;;;;;;;
2023/07/25 11:14:07;;;;;;;0.00;0.00;;;;;;;;;;4847007;29;20840;-76
2023/07/25 11:16:34;;;;;;;0.00;0.00;;;;;;;40.19;nan;99947.00;4851393;29;20029;-74
2023/07/25 11:19:10;;;;;;;0.00;0.00;;;;;;;41.96;nan;99943.59;4870380;28;20130;-73
2023/07/25 11:21:46;;;;;;;0.00;0.00;;;;;;;41.74;nan;99962.00;4929448;28;20035;-75
2023/07/25 11:24:19;;;;;;;0.00;0.00;;;;;;;37.76;nan;99936.97;4947972;28;20270;-75
2023/07/25 11:26:52;;;;;;;;;;;;;;;36.08;nan;99945.09;4928311;29;20030;-75
2023/07/25 11:29:21;;;;;;;0.00;0.00;;;;;;;33.89;nan;99923.97;4966818;28;19918;-75
2023/07/25 11:35:09;;;;;;;0.00;0.00;;;;;;;38.21;nan;99938.47;4955817;28;20497;-74
2023/07/25 11:38:02;;;;;;;0.00;0.00;;;;;;;41.95;nan;99942.78;4926844;28;20106;-74
2023/07/25 11:41:04;;;;;;;0.00;0.00;;;;;;;44.89;nan;99939.44;4928701;28;20586;-79
2023/07/25 11:44:19;;;;;;;0.00;0.00;;;;;;;43.95;nan;99909.50;4955859;28;21607;-74
2023/07/25 11:47:16;;;;;;;;;;;;;;;;;;;;;
2023/07/25 11:53:12;;;;;;;0.00;0.00;;;;;;;31.17;nan;99891.16;4880065;29;20041;-75
2023/07/25 11:56:15;;;;;;;0.00;0.00;;;;;;;34.35;nan;99892.97;4882523;29;20590;-77
2023/07/25 12:05:14;;;;;;;;;;;;;;;;;;;;;
2023/07/25 12:08:28;;;;;;;0.00;0.00;;;;;;;39.42;nan;99891.69;4886435;29;20050;-72
2023/07/25 12:11:03;;;;;;;0.00;0.00;;;;;;;35.22;nan;99894.34;4864796;29;20383;-74
2023/07/25 12:13:55;;;;;;;0.00;0.00;;;;;;;32.33;nan;99891.22;4872286;29;20037;-75
2023/07/25 12:17:18;;;;;;;;;;;;;;;;;;;;;
2023/07/25 12:20:37;;;;;;;;;;;;;;;;;;;;;
2023/07/25 12:23:33;;;;;;;0.00;0.00;;;;;;;39.17;nan;99903.47;4900554;29;20050;-74
2023/07/25 12:26:14;;;;;;;;;;;;;;;;;;;;;
2023/07/25 12:29:21;;;;;;;0.00;0.00;;;;;;;40.75;nan;99918.84;4957244;28;20037;-75
2023/07/25 12:31:47;;;;;;;0.00;0.00;;;;;;;39.17;nan;99918.56;4989887;28;20049;-75
2023/07/25 12:34:18;;;;;;;0.00;0.00;;;;;;;38.90;nan;99919.31;4977066;28;20026;-74
2023/07/25 12:36:49;;;;;;;0.00;0.00;;;;;;;35.03;nan;99901.78;4979036;28;20031;-73
2023/07/25 12:39:15;;;;;;;0.00;0.00;;;;;;;32.45;nan;99898.34;4982481;28;20062;-74
2023/07/25 12:41:43;;;;;;;0.00;0.00;;;;;;;30.30;nan;99889.06;4987480;28;20053;-74
2023/07/25 12:44:08;;;;;;;0.00;0.00;;;;;;;;;;4974670;28;20034;-75
2023/07/25 12:46:34;;;;;;;0.00;0.00;;;;;;;;;;4975685;28;20424;-74
2023/07/25 12:48:59;;;;;;;0.00;0.00;;;;;;;29.18;nan;99909.28;4975442;28;20265;-75